Clifton, KS (66937)

1:41 AM CST on February 20, 2017 (GMT -0600)
Strawberry | | Change Station

Elev 1463 ft 39.73 °N, 97.19 °W | Updated 4 seconds ago

Overcast
Overcast
59.4 °F
Feels Like 59.4 °F
N
17.0
Wind Variable Wind from South

Today
High -- | Low -- °F
--% Chance of Precip.
Yesterday
High -- | Low -- °F
Precip. -- in
Pressure 29.73 in
Visibility 8.0 miles
Clouds Few 5000 ft
Scattered Clouds 7000 ft
Mostly Cloudy 12000 ft
Dew Point 58 °F
Humidity 98%
Rainfall 0.00 in
Snow Depth Not available.
7:14 AM 6:11 PM
Last Quarter, 36% visible
METAR KCNK 200655Z AUTO 16017G23KT 8SM -RA FEW050 SCT070 BKN120 16/14 A2975 RMK AO2 RAB54 SLP067 P0000 T01560144
Pressure 29.73 in
Visibility 8.0 miles
Clouds Few 5000 ft
Scattered Clouds 7000 ft
Mostly Cloudy 12000 ft
Dew Point 58 °F
Humidity 98%
Rainfall 0.00 in
Snow Depth Not available.
7:14 AM 6:11 PM
Last Quarter, 36% visible
METAR KCNK 200655Z AUTO 16017G23KT 8SM -RA FEW050 SCT070 BKN120 16/14 A2975 RMK AO2 RAB54 SLP067 P0000 T01560144

Get Your Daily Forecast Email!

Thanks for signing up!

Be on the lookout for a verification email in your inbox.

You'll start receiving the daily forecast at 8 AM.

×

10-Day Weather Forecast

Almanac

Astronomy

Feb. 20, 2017 Rise Set
Actual Time
Civil Twilight
Nautical Twilight
Astronomical Twilight
Moon
Length of Visible Light
Length of Day
Tomorrow will be .
, % of the Moon is Illuminated

Today's Extremes

State Highs State Lows

Community

WunderPhotos

Upload Photos

1,962,540 photos uploaded!

WunderBlog® & News

Nearby

Air Quality

  Air Quality AQ Index Pollutant
Not available.

Snow Depth

Station Depth Elevation

Earthquake Activity

City Distance Mag. Time & Date
Minimum magnitude displayed is 2.5.

Coastal Water Temperatures

Place Temperature

Stations

Nearby Weather Stations

Station Location Temp. Windchill Dew Point Humidity Wind Precip. Elev Updated Type
                   

Watches & Warnings

There are currently no watches in effect.